sensor_id;sensor_type;location;lat;lon;timestamp;pressure;altitude;pressure_sealevel;temperature;humidity
70954;BME280;58618;47.490;8.736;2023-03-02T00:00:11;96379.25;;;1.55;100.00
70954;BME280;58618;47.490;8.736;2023-03-02T00:02:42;96354.72;;;1.49;97.81
70954;BME280;58618;47.490;8.736;2023-03-02T00:05:10;96363.47;;;1.65;98.51
70954;BME280;58618;47.490;8.736;2023-03-02T00:07:39;96397.63;;;1.57;98.03
70954;BME280;58618;47.490;8.736;2023-03-02T00:10:09;96407.91;;;1.33;99.43
70954;BME280;58618;47.490;8.736;2023-03-02T00:12:39;96414.00;;;1.32;100.00
70954;BME280;58618;47.490;8.736;2023-03-02T00:15:08;96404.63;;;1.44;100.00
70954;BME280;58618;47.490;8.736;2023-03-02T00:17:40;96375.81;;;1.50;99.88
70954;BME280;58618;47.490;8.736;2023-03-02T00:20:09;96383.78;;;1.65;99.87
70954;BME280;58618;47.490;8.736;2023-03-02T00:22:38;96381.53;;;1.34;98.50
70954;BME280;58618;47.490;8.736;2023-03-02T00:25:08;96399.25;;;1.22;100.00
70954;BME280;58618;47.490;8.736;2023-03-02T00:27:36;96376.72;;;1.14;100.00
70954;BME280;58618;47.490;8.736;2023-03-02T00:30:07;96348.06;;;0.95;100.00
70954;BME280;58618;47.490;8.736;2023-03-02T00:32:37;96385.41;;;1.06;100.00
70954;BME280;58618;47.490;8.736;2023-03-02T00:35:09;96396.31;;;1.25;100.00
70954;BME280;58618;47.490;8.736;2023-03-02T00:37:41;96360.44;;;1.03;100.00
70954;BME280;58618;47.490;8.736;2023-03-02T00:40:10;96403.84;;;1.32;100.00
70954;BME280;58618;47.490;8.736;2023-03-02T00:42:38;96354.78;;;1.01;100.00
70954;BME280;58618;47.490;8.736;2023-03-02T00:45:14;96396.22;;;1.32;100.00
70954;BME280;58618;47.490;8.736;2023-03-02T00:47:42;96369.47;;;0.99;100.00
70954;BME280;58618;47.490;8.736;2023-03-02T00:50:09;96395.03;;;1.46;100.00
70954;BME280;58618;47.490;8.736;2023-03-02T00:52:39;96373.84;;;1.52;100.00
70954;BME280;58618;47.490;8.736;2023-03-02T00:55:30;96377.88;;;1.30;100.00
70954;BME280;58618;47.490;8.736;2023-03-02T00:57:58;96378.19;;;1.21;100.00
70954;BME280;58618;47.490;8.736;2023-03-02T01:00:28;96367.09;;;1.46;100.00
70954;BME280;58618;47.490;8.736;2023-03-02T01:02:56;96339.53;;;1.19;99.99
70954;BME280;58618;47.490;8.736;2023-03-02T01:05:40;96334.19;;;1.09;100.00
70954;BME280;58618;47.490;8.736;2023-03-02T01:08:14;96343.66;;;1.02;100.00
70954;BME280;58618;47.490;8.736;2023-03-02T01:10:50;96365.69;;;1.20;100.00
70954;BME280;58618;47.490;8.736;2023-03-02T01:13:22;96344.44;;;1.03;100.00
70954;BME280;58618;47.490;8.736;2023-03-02T01:16:01;96346.31;;;1.37;100.00
70954;BME280;58618;47.490;8.736;2023-03-02T01:18:30;96356.59;;;1.54;100.00
70954;BME280;58618;47.490;8.736;2023-03-02T01:21:01;96324.56;;;1.11;100.00
70954;BME280;58618;47.490;8.736;2023-03-02T01:23:31;96308.84;;;0.91;100.00
70954;BME280;58618;47.490;8.736;2023-03-02T01:25:58;96355.44;;;1.26;100.00
70954;BME280;58618;47.490;8.736;2023-03-02T01:28:27;96326.88;;;1.01;100.00
70954;BME280;58618;47.490;8.736;2023-03-02T01:30:54;96348.31;;;1.05;100.00
70954;BME280;58618;47.490;8.736;2023-03-02T01:33:24;96328.28;;;0.97;100.00
70954;BME280;58618;47.490;8.736;2023-03-02T01:35:51;96331.78;;;1.14;100.00
70954;BME280;58618;47.490;8.736;2023-03-02T01:38:20;96322.59;;;1.13;100.00
70954;BME280;58618;47.490;8.736;2023-03-02T01:40:48;96298.88;;;1.19;100.00
70954;BME280;58618;47.490;8.736;2023-03-02T01:43:16;96344.22;;;1.46;100.00
70954;BME280;58618;47.490;8.736;2023-03-02T01:45:51;96344.84;;;1.30;100.00
70954;BME280;58618;47.490;8.736;2023-03-02T01:48:25;96346.47;;;1.24;100.00
70954;BME280;58618;47.490;8.736;2023-03-02T01:50:54;96329.75;;;1.05;100.00
70954;BME280;58618;47.490;8.736;2023-03-02T01:53:25;96310.09;;;1.00;100.00
70954;BME280;58618;47.490;8.736;2023-03-02T01:55:54;96334.19;;;1.09;100.00
70954;BME280;58618;47.490;8.736;2023-03-02T01:58:24;96314.91;;;0.90;100.00
70954;BME280;58618;47.490;8.736;2023-03-02T02:00:53;96313.38;;;0.89;100.00
70954;BME280;58618;47.490;8.736;2023-03-02T02:03:26;96294.09;;;1.11;100.00
70954;BME280;58618;47.490;8.736;2023-03-02T02:06:02;96295.25;;;1.39;100.00
70954;BME280;58618;47.490;8.736;2023-03-02T02:08:32;96296.75;;;1.16;100.00
70954;BME280;58618;47.490;8.736;2023-03-02T02:11:00;96287.47;;;0.99;100.00
70954;BME280;58618;47.490;8.736;2023-03-02T02:13:28;96324.97;;;1.26;100.00
70954;BME280;58618;47.490;8.736;2023-03-02T02:15:56;96280.75;;;1.27;100.00
70954;BME280;58618;47.490;8.736;2023-03-02T02:18:25;96276.38;;;1.35;100.00
70954;BME280;58618;47.490;8.736;2023-03-02T02:20:54;96284.50;;;1.13;100.00
70954;BME280;58618;47.490;8.736;2023-03-02T02:23:27;96324.38;;;1.13;100.00
70954;BME280;58618;47.490;8.736;2023-03-02T02:26:04;96320.94;;;1.07;100.00
70954;BME280;58618;47.490;8.736;2023-03-02T02:28:38;96289.97;;;0.87;100.00
70954;BME280;58618;47.490;8.736;2023-03-02T02:31:12;96328.53;;;1.07;100.00
70954;BME280;58618;47.490;8.736;2023-03-02T02:33:44;96321.22;;;1.41;100.00
70954;BME280;58618;47.490;8.736;2023-03-02T02:36:17;96287.31;;;1.35;100.00
70954;BME280;58618;47.490;8.736;2023-03-02T02:38:49;96271.91;;;1.18;100.00
70954;BME280;58618;47.490;8.736;2023-03-02T02:41:23;96267.53;;;1.25;100.00
70954;BME280;58618;47.490;8.736;2023-03-02T02:43:52;96308.31;;;1.54;100.00
70954;BME280;58618;47.490;8.736;2023-03-02T02:46:20;96292.63;;;1.57;100.00
70954;BME280;58618;47.490;8.736;2023-03-02T02:48:48;96312.75;;;1.70;99.57
70954;BME280;58618;47.490;8.736;2023-03-02T02:51:20;96288.22;;;1.52;100.00
70954;BME280;58618;47.490;8.736;2023-03-02T02:53:53;96299.38;;;1.51;100.00
70954;BME280;58618;47.490;8.736;2023-03-02T02:56:26;96313.91;;;1.33;100.00
70954;BME280;58618;47.490;8.736;2023-03-02T02:58:58;96299.75;;;1.13;100.00
70954;BME280;58618;47.490;8.736;2023-03-02T03:01:28;96282.72;;;1.02;100.00
70954;BME280;58618;47.490;8.736;2023-03-02T03:03:59;96270.88;;;0.84;100.00
70954;BME280;58618;47.490;8.736;2023-03-02T03:06:32;96287.41;;;0.87;100.00
70954;BME280;58618;47.490;8.736;2023-03-02T03:09:04;96316.38;;;0.98;100.00
70954;BME280;58618;47.490;8.736;2023-03-02T03:11:36;96292.94;;;0.96;100.00
70954;BME280;58618;47.490;8.736;2023-03-02T03:14:07;96288.22;;;0.99;100.00
70954;BME280;58618;47.490;8.736;2023-03-02T03:16:37;96299.81;;;0.95;100.00
70954;BME280;58618;47.490;8.736;2023-03-02T03:19:09;96291.13;;;1.14;100.00
70954;BME280;58618;47.490;8.736;2023-03-02T03:21:38;96313.44;;;1.12;100.00
70954;BME280;58618;47.490;8.736;2023-03-02T03:24:07;96306.53;;;1.01;100.00
70954;BME280;58618;47.490;8.736;2023-03-02T03:26:36;96303.59;;;1.04;100.00
70954;BME280;58618;47.490;8.736;2023-03-02T03:29:03;96275.16;;;0.84;100.00
70954;BME280;58618;47.490;8.736;2023-03-02T03:31:31;96277.84;;;0.89;100.00
70954;BME280;58618;47.490;8.736;2023-03-02T03:33:59;96292.31;;;1.00;100.00
70954;BME280;58618;47.490;8.736;2023-03-02T03:36:27;96306.72;;;1.18;100.00
70954;BME280;58618;47.490;8.736;2023-03-02T03:38:56;96289.91;;;1.05;100.00
70954;BME280;58618;47.490;8.736;2023-03-02T03:41:24;96274.97;;;0.97;100.00
70954;BME280;58618;47.490;8.736;2023-03-02T03:43:54;96277.84;;;1.01;100.00
70954;BME280;58618;47.490;8.736;2023-03-02T03:46:21;96309.81;;;1.20;100.00
70954;BME280;58618;47.490;8.736;2023-03-02T03:48:50;96288.91;;;1.06;100.00
70954;BME280;58618;47.490;8.736;2023-03-02T03:51:35;96292.00;;;1.08;100.00
70954;BME280;58618;47.490;8.736;2023-03-02T03:54:04;96272.75;;;1.01;100.00
70954;BME280;58618;47.490;8.736;2023-03-02T03:56:35;96292.69;;;1.15;100.00
70954;BME280;58618;47.490;8.736;2023-03-02T03:59:07;96314.16;;;1.31;100.00
70954;BME280;58618;47.490;8.736;2023-03-02T04:01:36;96314.81;;;1.26;100.00
70954;BME280;58618;47.490;8.736;2023-03-02T04:04:06;96302.06;;;1.15;100.00
70954;BME280;58618;47.490;8.736;2023-03-02T04:06:33;96314.44;;;1.23;100.00
70954;BME280;58618;47.490;8.736;2023-03-02T04:09:01;96267.91;;;0.99;100.00
70954;BME280;58618;47.490;8.736;2023-03-02T04:11:29;96313.16;;;1.32;100.00
70954;BME280;58618;47.490;8.736;2023-03-02T04:13:57;96301.31;;;1.38;100.00
70954;BME280;58618;47.490;8.736;2023-03-02T04:16:26;96268.94;;;1.10;100.00
70954;BME280;58618;47.490;8.736;2023-03-02T04:18:54;96285.19;;;1.20;100.00
70954;BME280;58618;47.490;8.736;2023-03-02T04:21:21;96292.00;;;1.08;100.00
70954;BME280;58618;47.490;8.736;2023-03-02T04:23:49;96320.44;;;1.28;100.00
70954;BME280;58618;47.490;8.736;2023-03-02T04:26:17;96302.22;;;1.32;100.00
70954;BME280;58618;47.490;8.736;2023-03-02T04:28:45;96319.78;;;1.45;100.00
70954;BME280;58618;47.490;8.736;2023-03-02T04:31:15;96307.06;;;1.21;100.00
70954;BME280;58618;47.490;8.736;2023-03-02T04:33:44;96334.22;;;1.33;100.00
70954;BME280;58618;47.490;8.736;2023-03-02T04:36:12;96299.69;;;1.32;100.00
70954;BME280;58618;47.490;8.736;2023-03-02T04:38:46;96313.78;;;1.16;100.00
70954;BME280;58618;47.490;8.736;2023-03-02T04:41:13;96314.97;;;1.13;100.00
70954;BME280;58618;47.490;8.736;2023-03-02T04:43:40;96319.88;;;1.26;100.00
70954;BME280;58618;47.490;8.736;2023-03-02T04:46:09;96310.91;;;1.24;100.00
70954;BME280;58618;47.490;8.736;2023-03-02T04:48:39;96324.84;;;1.21;100.00
70954;BME280;58618;47.490;8.736;2023-03-02T04:51:15;96340.63;;;1.23;100.00
70954;BME280;58618;47.490;8.736;2023-03-02T04:53:43;96319.38;;;1.06;100.00
70954;BME280;58618;47.490;8.736;2023-03-02T04:56:11;96314.72;;;1.03;100.00
70954;BME280;58618;47.490;8.736;2023-03-02T04:58:38;96289.50;;;0.90;100.00
70954;BME280;58618;47.490;8.736;2023-03-02T05:01:06;96329.34;;;1.19;100.00
70954;BME280;58618;47.490;8.736;2023-03-02T05:03:44;96290.84;;;0.93;100.00
70954;BME280;58618;47.490;8.736;2023-03-02T05:06:14;96309.97;;;1.07;100.00
70954;BME280;58618;47.490;8.736;2023-03-02T05:08:44;96321.16;;;1.17;100.00
70954;BME280;58618;47.490;8.736;2023-03-02T05:11:32;96300.47;;;1.02;100.00
70954;BME280;58618;47.490;8.736;2023-03-02T05:14:02;96299.41;;;1.10;100.00
70954;BME280;58618;47.490;8.736;2023-03-02T05:16:32;96296.56;;;1.30;100.00
70954;BME280;58618;47.490;8.736;2023-03-02T05:19:01;96303.09;;;1.25;100.00
70954;BME280;58618;47.490;8.736;2023-03-02T05:21:33;96318.34;;;1.25;100.00
70954;BME280;58618;47.490;8.736;2023-03-02T05:24:01;96328.94;;;1.34;100.00
70954;BME280;58618;47.490;8.736;2023-03-02T05:26:30;96316.78;;;1.24;100.00
70954;BME280;58618;47.490;8.736;2023-03-02T05:29:10;96345.22;;;1.56;100.00
70954;BME280;58618;47.490;8.736;2023-03-02T05:32:01;96318.88;;;1.16;100.00
70954;BME280;58618;47.490;8.736;2023-03-02T05:34:35;96324.81;;;1.10;100.00
70954;BME280;58618;47.490;8.736;2023-03-02T05:37:05;96333.34;;;1.27;100.00
70954;BME280;58618;47.490;8.736;2023-03-02T05:39:46;96358.50;;;1.70;100.00
70954;BME280;58618;47.490;8.736;2023-03-02T05:42:17;96366.09;;;1.47;100.00
70954;BME280;58618;47.490;8.736;2023-03-02T05:44:54;96350.31;;;1.56;100.00
70954;BME280;58618;47.490;8.736;2023-03-02T05:47:30;96314.81;;;1.26;100.00
70954;BME280;58618;47.490;8.736;2023-03-02T05:50:02;96344.00;;;1.59;100.00
70954;BME280;58618;47.490;8.736;2023-03-02T05:52:32;96333.84;;;1.59;100.00
70954;BME280;58618;47.490;8.736;2023-03-02T05:55:03;96351.00;;;1.63;100.00
70954;BME280;58618;47.490;8.736;2023-03-02T05:57:31;96336.25;;;1.54;100.00
70954;BME280;58618;47.490;8.736;2023-03-02T05:59:59;96343.97;;;1.36;100.00
70954;BME280;58618;47.490;8.736;2023-03-02T06:02:26;96381.81;;;1.67;100.00
70954;BME280;58618;47.490;8.736;2023-03-02T06:04:54;96344.66;;;1.43;100.00
70954;BME280;58618;47.490;8.736;2023-03-02T06:07:22;96364.09;;;1.49;100.00
70954;BME280;58618;47.490;8.736;2023-03-02T06:10:02;96328.50;;;1.25;100.00
70954;BME280;58618;47.490;8.736;2023-03-02T06:12:44;96385.31;;;1.43;100.00
70954;BME280;58618;47.490;8.736;2023-03-02T06:15:11;96385.63;;;1.35;100.00
70954;BME280;58618;47.490;8.736;2023-03-02T06:17:39;96390.63;;;1.41;100.00
70954;BME280;58618;47.490;8.736;2023-03-02T06:20:08;96368.53;;;1.42;100.00
70954;BME280;58618;47.490;8.736;2023-03-02T06:22:36;96378.72;;;1.65;100.00
70954;BME280;58618;47.490;8.736;2023-03-02T06:25:09;96389.22;;;1.57;100.00
70954;BME280;58618;47.490;8.736;2023-03-02T06:27:38;96374.47;;;1.36;100.00
70954;BME280;58618;47.490;8.736;2023-03-02T06:30:10;96399.75;;;1.72;100.00
70954;BME280;58618;47.490;8.736;2023-03-02T06:32:39;96370.09;;;1.66;100.00
70954;BME280;58618;47.490;8.736;2023-03-02T06:35:09;96402.31;;;1.95;100.00
70954;BME280;58618;47.490;8.736;2023-03-02T06:37:39;96387.25;;;1.82;100.00
70954;BME280;58618;47.490;8.736;2023-03-02T06:40:09;96385.81;;;1.86;100.00
70954;BME280;58618;47.490;8.736;2023-03-02T06:42:40;96413.16;;;2.02;100.00
70954;BME280;58618;47.490;8.736;2023-03-02T06:45:09;96413.63;;;2.11;100.00
70954;BME280;58618;47.490;8.736;2023-03-02T06:47:37;96401.28;;;1.73;100.00
70954;BME280;58618;47.490;8.736;2023-03-02T06:50:08;96395.53;;;1.66;100.00
70954;BME280;58618;47.490;8.736;2023-03-02T06:52:36;96424.75;;;1.98;100.00
70954;BME280;58618;47.490;8.736;2023-03-02T06:55:04;96405.97;;;1.99;100.00
70954;BME280;58618;47.490;8.736;2023-03-02T06:57:33;96407.41;;;2.07;100.00
70954;BME280;58618;47.490;8.736;2023-03-02T07:00:01;96424.53;;;2.11;100.00
70954;BME280;58618;47.490;8.736;2023-03-02T07:02:32;96437.03;;;2.13;100.00
70954;BME280;58618;47.490;8.736;2023-03-02T07:05:00;96427.84;;;2.12;100.00
70954;BME280;58618;47.490;8.736;2023-03-02T07:07:28;96444.00;;;2.18;100.00
70954;BME280;58618;47.490;8.736;2023-03-02T07:09:55;96437.50;;;2.22;100.00
70954;BME280;58618;47.490;8.736;2023-03-02T07:12:22;96397.88;;;1.91;100.00
70954;BME280;58618;47.490;8.736;2023-03-02T07:14:52;96442.03;;;2.43;100.00
70954;BME280;58618;47.490;8.736;2023-03-02T07:17:19;96442.38;;;2.35;100.00
70954;BME280;58618;47.490;8.736;2023-03-02T07:19:47;96400.88;;;1.99;100.00
70954;BME280;58618;47.490;8.736;2023-03-02T07:22:14;96458.41;;;2.47;100.00
70954;BME280;58618;47.490;8.736;2023-03-02T07:24:42;96427.09;;;2.46;100.00
70954;BME280;58618;47.490;8.736;2023-03-02T07:27:10;96433.94;;;2.58;100.00
70954;BME280;58618;47.490;8.736;2023-03-02T07:29:37;96440.34;;;2.60;99.61
70954;BME280;58618;47.490;8.736;2023-03-02T07:32:06;96418.31;;;2.54;99.80
70954;BME280;58618;47.490;8.736;2023-03-02T07:34:33;96447.31;;;2.76;99.83
70954;BME280;58618;47.490;8.736;2023-03-02T07:37:00;96445.31;;;2.78;98.94
70954;BME280;58618;47.490;8.736;2023-03-02T07:39:27;96442.47;;;2.63;99.68
70954;BME280;58618;47.490;8.736;2023-03-02T07:41:56;96445.91;;;2.57;99.48
70954;BME280;58618;47.490;8.736;2023-03-02T07:44:23;96449.53;;;2.61;100.00
70954;BME280;58618;47.490;8.736;2023-03-02T07:46:51;96445.44;;;2.72;99.20
70954;BME280;58618;47.490;8.736;2023-03-02T07:49:20;96468.56;;;2.82;99.99
70954;BME280;58618;47.490;8.736;2023-03-02T07:51:50;96470.00;;;2.78;100.00
70954;BME280;58618;47.490;8.736;2023-03-02T07:54:17;96470.34;;;2.81;99.84
70954;BME280;58618;47.490;8.736;2023-03-02T07:56:44;96446.31;;;2.77;98.53
70954;BME280;58618;47.490;8.736;2023-03-02T07:59:12;96493.25;;;2.81;99.42
70954;BME280;58618;47.490;8.736;2023-03-02T08:01:39;96472.25;;;2.63;98.67
70954;BME280;58618;47.490;8.736;2023-03-02T08:04:07;96492.47;;;2.92;99.19
70954;BME280;58618;47.490;8.736;2023-03-02T08:06:36;96491.94;;;2.90;97.14
70954;BME280;58618;47.490;8.736;2023-03-02T08:09:03;96452.31;;;2.60;99.21
70954;BME280;58618;47.490;8.736;2023-03-02T08:11:31;96446.13;;;2.67;99.03
70954;BME280;58618;47.490;8.736;2023-03-02T08:13:59;96474.75;;;2.97;97.38
70954;BME280;58618;47.490;8.736;2023-03-02T08:16:26;96471.50;;;3.02;96.92
70954;BME280;58618;47.490;8.736;2023-03-02T08:18:54;96471.66;;;2.95;96.41
70954;BME280;58618;47.490;8.736;2023-03-02T08:21:23;96487.59;;;2.91;96.80
70954;BME280;58618;47.490;8.736;2023-03-02T08:23:52;96469.69;;;2.74;96.78
70954;BME280;58618;47.490;8.736;2023-03-02T08:26:20;96497.44;;;2.99;97.03
70954;BME280;58618;47.490;8.736;2023-03-02T08:28:47;96480.19;;;3.01;98.21
70954;BME280;58618;47.490;8.736;2023-03-02T08:31:15;96505.28;;;3.21;95.86
70954;BME280;58618;47.490;8.736;2023-03-02T08:33:42;96466.19;;;3.04;95.96
70954;BME280;58618;47.490;8.736;2023-03-02T08:36:12;96497.13;;;3.47;93.38
70954;BME280;58618;47.490;8.736;2023-03-02T08:38:40;96502.94;;;3.59;92.74
70954;BME280;58618;47.490;8.736;2023-03-02T08:41:12;96491.84;;;3.37;93.87
70954;BME280;58618;47.490;8.736;2023-03-02T08:43:40;96507.38;;;3.24;94.34
70954;BME280;58618;47.490;8.736;2023-03-02T08:46:09;96487.25;;;3.39;93.70
70954;BME280;58618;47.490;8.736;2023-03-02T08:48:37;96501.84;;;3.55;92.17
70954;BME280;58618;47.490;8.736;2023-03-02T08:51:07;96484.38;;;3.47;91.37
70954;BME280;58618;47.490;8.736;2023-03-02T08:53:36;96481.72;;;3.42;91.59
70954;BME280;58618;47.490;8.736;2023-03-02T08:56:04;96475.16;;;3.46;91.73
70954;BME280;58618;47.490;8.736;2023-03-02T08:58:34;96510.31;;;3.72;90.63
70954;BME280;58618;47.490;8.736;2023-03-02T09:01:01;96488.00;;;3.51;90.65
70954;BME280;58618;47.490;8.736;2023-03-02T09:03:30;96455.72;;;3.28;91.63
70954;BME280;58618;47.490;8.736;2023-03-02T09:05:57;96474.09;;;3.30;91.97
70954;BME280;58618;47.490;8.736;2023-03-02T09:08:25;96495.75;;;3.56;91.19
70954;BME280;58618;47.490;8.736;2023-03-02T09:10:52;96491.97;;;3.59;90.81
70954;BME280;58618;47.490;8.736;2023-03-02T09:13:19;96470.63;;;3.48;89.89
70954;BME280;58618;47.490;8.736;2023-03-02T09:15:48;96481.03;;;3.47;89.95
70954;BME280;58618;47.490;8.736;2023-03-02T09:18:15;96492.75;;;3.59;89.83
70954;BME280;58618;47.490;8.736;2023-03-02T09:20:42;96506.69;;;3.68;89.80
70954;BME280;58618;47.490;8.736;2023-03-02T09:23:10;96528.00;;;3.62;89.55
70954;BME280;58618;47.490;8.736;2023-03-02T09:25:38;96476.06;;;3.40;90.05
70954;BME280;58618;47.490;8.736;2023-03-02T09:28:06;96481.91;;;3.52;88.77
70954;BME280;58618;47.490;8.736;2023-03-02T09:30:34;96509.41;;;3.78;89.10
70954;BME280;58618;47.490;8.736;2023-03-02T09:33:02;96508.22;;;3.69;90.61
70954;BME280;58618;47.490;8.736;2023-03-02T09:35:30;96475.00;;;3.24;91.33
70954;BME280;58618;47.490;8.736;2023-03-02T09:37:57;96511.31;;;3.43;92.52
70954;BME280;58618;47.490;8.736;2023-03-02T09:40:26;96483.41;;;3.36;91.37
70954;BME280;58618;47.490;8.736;2023-03-02T09:43:16;96523.53;;;3.69;90.23
70954;BME280;58618;47.490;8.736;2023-03-02T09:45:53;96508.19;;;3.53;92.19
70954;BME280;58618;47.490;8.736;2023-03-02T09:48:36;96502.03;;;3.65;90.59
70954;BME280;58618;47.490;8.736;2023-03-02T09:51:14;96536.44;;;3.51;93.46
70954;BME280;58618;47.490;8.736;2023-03-02T09:53:50;96493.66;;;3.13;95.15
70954;BME280;58618;47.490;8.736;2023-03-02T09:56:20;96544.66;;;3.53;92.85
70954;BME280;58618;47.490;8.736;2023-03-02T09:58:55;96520.38;;;3.11;92.62
70954;BME280;58618;47.490;8.736;2023-03-02T10:01:31;96548.81;;;3.08;93.99
70954;BME280;58618;47.490;8.736;2023-03-02T10:04:10;96530.41;;;3.29;92.91
70954;BME280;58618;47.490;8.736;2023-03-02T10:06:39;96497.13;;;2.95;93.27
70954;BME280;58618;47.490;8.736;2023-03-02T10:09:08;96546.34;;;3.36;92.98
70954;BME280;58618;47.490;8.736;2023-03-02T10:11:45;96543.09;;;3.52;92.97
70954;BME280;58618;47.490;8.736;2023-03-02T10:14:19;96528.28;;;3.37;92.46
70954;BME280;58618;47.490;8.736;2023-03-02T10:16:52;96536.72;;;3.66;90.97
70954;BME280;58618;47.490;8.736;2023-03-02T10:19:27;96541.91;;;3.71;91.19
70954;BME280;58618;47.490;8.736;2023-03-02T10:21:59;96521.75;;;3.70;90.52
70954;BME280;58618;47.490;8.736;2023-03-02T10:24:34;96533.19;;;3.96;89.55
70954;BME280;58618;47.490;8.736;2023-03-02T10:27:12;96514.69;;;3.89;88.19
70954;BME280;58618;47.490;8.736;2023-03-02T10:29:48;96520.47;;;3.84;90.58
70954;BME280;58618;47.490;8.736;2023-03-02T10:32:19;96541.00;;;4.06;89.41
70954;BME280;58618;47.490;8.736;2023-03-02T10:34:49;96541.28;;;3.93;90.72
70954;BME280;58618;47.490;8.736;2023-03-02T10:37:19;96541.31;;;3.81;91.63
70954;BME280;58618;47.490;8.736;2023-03-02T10:39:48;96542.91;;;3.99;90.31
70954;BME280;58618;47.490;8.736;2023-03-02T10:42:21;96528.91;;;3.85;91.09
70954;BME280;58618;47.490;8.736;2023-03-02T10:44:54;96540.38;;;3.70;90.75
70954;BME280;58618;47.490;8.736;2023-03-02T10:47:25;96532.63;;;3.65;91.99
70954;BME280;58618;47.490;8.736;2023-03-02T10:49:55;96565.38;;;3.57;90.04
70954;BME280;58618;47.490;8.736;2023-03-02T10:52:24;96527.16;;;3.45;91.96
70954;BME280;58618;47.490;8.736;2023-03-02T10:55:01;96548.84;;;3.59;92.44
70954;BME280;58618;47.490;8.736;2023-03-02T10:57:34;96530.63;;;3.67;92.57
70954;BME280;58618;47.490;8.736;2023-03-02T11:00:04;96508.16;;;3.64;91.42
70954;BME280;58618;47.490;8.736;2023-03-02T11:02:48;96534.56;;;4.03;89.36
70954;BME280;58618;47.490;8.736;2023-03-02T11:05:38;96538.63;;;4.16;87.87
70954;BME280;58618;47.490;8.736;2023-03-02T11:08:08;96533.03;;;4.19;87.43
70954;BME280;58618;47.490;8.736;2023-03-02T11:10:38;96528.66;;;3.86;87.86
70954;BME280;58618;47.490;8.736;2023-03-02T11:13:15;96516.41;;;3.43;90.02
70954;BME280;58618;47.490;8.736;2023-03-02T11:15:45;96530.34;;;3.52;90.92
70954;BME280;58618;47.490;8.736;2023-03-02T11:18:23;96549.75;;;3.53;90.20
70954;BME280;58618;47.490;8.736;2023-03-02T11:20:54;96551.41;;;3.88;90.29
70954;BME280;58618;47.490;8.736;2023-03-02T11:23:31;96524.50;;;3.97;88.57
70954;BME280;58618;47.490;8.736;2023-03-02T11:26:02;96559.38;;;4.36;87.21
70954;BME280;58618;47.490;8.736;2023-03-02T11:28:39;96557.97;;;4.45;86.18
70954;BME280;58618;47.490;8.736;2023-03-02T11:31:15;96575.50;;;4.53;85.21
70954;BME280;58618;47.490;8.736;2023-03-02T11:33:55;96566.28;;;4.52;84.55
70954;BME280;58618;47.490;8.736;2023-03-02T11:36:33;96559.38;;;4.36;86.02
70954;BME280;58618;47.490;8.736;2023-03-02T11:39:02;96581.53;;;4.47;86.13
70954;BME280;58618;47.490;8.736;2023-03-02T11:41:34;96543.59;;;4.22;85.07
70954;BME280;58618;47.490;8.736;2023-03-02T11:44:08;96553.47;;;4.19;85.58
70954;BME280;58618;47.490;8.736;2023-03-02T11:46:39;96578.88;;;4.42;86.98
70954;BME280;58618;47.490;8.736;2023-03-02T11:49:13;96572.78;;;4.43;86.10
70954;BME280;58618;47.490;8.736;2023-03-02T11:51:52;96560.94;;;4.37;88.02
70954;BME280;58618;47.490;8.736;2023-03-02T11:54:30;96562.63;;;4.48;86.95
70954;BME280;58618;47.490;8.736;2023-03-02T11:57:02;96514.41;;;4.02;88.17
70954;BME280;58618;47.490;8.736;2023-03-02T11:59:29;96553.50;;;4.36;88.29
70954;BME280;58618;47.490;8.736;2023-03-02T12:01:57;96530.59;;;4.57;85.86
70954;BME280;58618;47.490;8.736;2023-03-02T12:04:28;96543.44;;;4.62;85.58
70954;BME280;58618;47.490;8.736;2023-03-02T12:07:00;96560.47;;;4.74;85.11
70954;BME280;58618;47.490;8.736;2023-03-02T12:09:38;96549.75;;;4.77;84.24
70954;BME280;58618;47.490;8.736;2023-03-02T12:12:30;96555.78;;;4.87;83.46
70954;BME280;58618;47.490;8.736;2023-03-02T12:15:22;96507.53;;;4.36;83.49
70954;BME280;58618;47.490;8.736;2023-03-02T12:17:56;96558.44;;;4.42;86.34
70954;BME280;58618;47.490;8.736;2023-03-02T12:20:26;96532.78;;;4.49;83.93
70954;BME280;58618;47.490;8.736;2023-03-02T12:23:05;96536.94;;;4.55;83.94
70954;BME280;58618;47.490;8.736;2023-03-02T12:25:40;96537.88;;;4.49;84.14
70954;BME280;58618;47.490;8.736;2023-03-02T12:28:26;96496.75;;;4.34;84.04
70954;BME280;58618;47.490;8.736;2023-03-02T12:30:56;96542.22;;;4.65;83.27
70954;BME280;58618;47.490;8.736;2023-03-02T12:33:27;96510.91;;;3.91;85.81
70954;BME280;58618;47.490;8.736;2023-03-02T12:36:03;96545.94;;;3.96;87.54
70954;BME280;58618;47.490;8.736;2023-03-02T12:38:40;96525.16;;;4.20;87.54
70954;BME280;58618;47.490;8.736;2023-03-02T12:41:36;96540.25;;;4.55;85.44
70954;BME280;58618;47.490;8.736;2023-03-02T12:44:24;96523.63;;;4.19;85.88
70954;BME280;58618;47.490;8.736;2023-03-02T12:46:58;96533.03;;;4.19;87.48
70954;BME280;58618;47.490;8.736;2023-03-02T12:49:39;96539.44;;;4.33;88.28
70954;BME280;58618;47.490;8.736;2023-03-02T12:52:27;96537.84;;;4.65;85.52
70954;BME280;58618;47.490;8.736;2023-03-02T12:55:02;96545.91;;;4.57;85.70
70954;BME280;58618;47.490;8.736;2023-03-02T12:57:30;96532.91;;;4.59;86.76
70954;BME280;58618;47.490;8.736;2023-03-02T13:00:00;96516.88;;;4.63;85.50
70954;BME280;58618;47.490;8.736;2023-03-02T13:02:29;96511.63;;;4.70;84.70
70954;BME280;58618;47.490;8.736;2023-03-02T13:04:59;96536.75;;;4.95;82.48
70954;BME280;58618;47.490;8.736;2023-03-02T13:07:33;96527.16;;;4.85;82.76
70954;BME280;58618;47.490;8.736;2023-03-02T13:10:07;96524.00;;;4.61;84.38
70954;BME280;58618;47.490;8.736;2023-03-02T13:12:35;96545.13;;;4.74;84.72
70954;BME280;58618;47.490;8.736;2023-03-02T13:15:13;96499.25;;;4.45;84.46
70954;BME280;58618;47.490;8.736;2023-03-02T13:17:42;96538.47;;;4.73;83.81
70954;BME280;58618;47.490;8.736;2023-03-02T13:20:12;96536.00;;;4.78;83.78
70954;BME280;58618;47.490;8.736;2023-03-02T13:22:40;96535.19;;;4.94;82.74
70954;BME280;58618;47.490;8.736;2023-03-02T13:25:21;96550.25;;;4.74;85.67